createdAt,value
2018-07-03T00:05:47.653Z,1011
2018-07-03T00:16:03.258Z,1011
2018-07-03T00:26:18.218Z,1011
2018-07-03T00:36:32.870Z,1010.9
2018-07-03T00:46:47.667Z,1011
2018-07-03T00:57:01.891Z,1011
2018-07-03T01:07:15.878Z,1011.1
2018-07-03T01:17:30.370Z,1011
2018-07-03T01:27:44.422Z,1010.9
2018-07-03T01:37:59.564Z,1010.9
2018-07-03T01:48:14.403Z,1010.8
2018-07-03T01:58:29.501Z,1010.8
2018-07-03T02:08:44.648Z,1010.7
2018-07-03T02:18:58.730Z,1010.7
2018-07-03T02:29:12.712Z,1010.7
2018-07-03T02:39:29.771Z,1010.6
2018-07-03T02:49:44.565Z,1010.6
2018-07-03T02:59:59.210Z,1010.5
2018-07-03T03:10:13.460Z,1010.5
2018-07-03T03:20:27.231Z,1010.5
2018-07-03T03:30:42.356Z,1010.5
2018-07-03T03:40:57.295Z,1010.4
2018-07-03T03:51:11.052Z,1010.4
2018-07-03T04:01:25.828Z,1010.5
2018-07-03T04:11:40.499Z,1010.5
2018-07-03T04:21:55.461Z,1010.5
2018-07-03T04:32:10.237Z,1010.5
2018-07-03T04:42:24.783Z,1010.5
2018-07-03T04:52:39.553Z,1010.6
2018-07-03T05:02:54.885Z,1010.7
2018-07-03T05:13:10.593Z,1010.7
2018-07-03T05:23:24.908Z,1010.9
2018-07-03T05:33:40.362Z,1010.9
2018-07-03T05:43:55.661Z,1011
2018-07-03T05:54:11.211Z,1011
2018-07-03T06:04:26.331Z,1011.1
2018-07-03T06:14:41.028Z,1011.1
2018-07-03T06:24:55.358Z,1011.1
2018-07-03T06:35:10.710Z,1011.1
2018-07-03T06:45:26.298Z,1011
2018-07-03T06:55:40.685Z,1011.2
2018-07-03T07:05:56.154Z,1011.2
2018-07-03T07:16:10.915Z,1011.1
2018-07-03T07:26:25.717Z,1011
2018-07-03T07:36:39.583Z,1011.1
2018-07-03T07:46:54.043Z,1011.1
2018-07-03T07:57:08.601Z,1011
2018-07-03T08:07:22.405Z,1011
2018-07-03T08:17:36.878Z,1011
2018-07-03T08:27:52.124Z,1011.2
2018-07-03T08:38:07.162Z,1011
2018-07-03T08:48:22.640Z,1011
2018-07-03T08:58:37.419Z,1010.9
2018-07-03T09:08:52.659Z,1010.9
2018-07-03T09:19:07.385Z,1010.8
2018-07-03T09:29:22.368Z,1010.8
2018-07-03T09:39:37.599Z,1010.9
2018-07-03T09:49:52.256Z,1010.7
2018-07-03T10:00:06.869Z,1010.6
2018-07-03T10:10:22.761Z,1010.6
2018-07-03T10:20:37.350Z,1010.6
2018-07-03T10:30:52.027Z,1010.6
2018-07-03T10:41:07.068Z,1010.5
2018-07-03T10:51:22.930Z,1010.4
2018-07-03T11:01:37.314Z,1010.4
2018-07-03T11:11:51.857Z,1010.5
2018-07-03T11:22:06.491Z,1010.4
2018-07-03T11:32:21.505Z,1010.2
2018-07-03T11:42:36.655Z,1010.2
2018-07-03T11:52:51.480Z,1010.1
2018-07-03T12:03:05.509Z,1010.1
2018-07-03T12:13:21.220Z,1010.1
2018-07-03T12:23:35.173Z,1010.1
2018-07-03T12:33:51.065Z,1010.3
2018-07-03T12:44:06.569Z,1010.3
2018-07-03T12:54:22.024Z,1010.6
2018-07-03T13:04:37.548Z,1010.5
2018-07-03T13:14:51.679Z,1010.3
2018-07-03T13:25:06.292Z,1010.5
2018-07-03T13:35:21.619Z,1010.5
2018-07-03T13:45:35.968Z,1010.9
2018-07-03T13:55:50.971Z,1010.1
2018-07-03T14:06:05.614Z,1009.7
2018-07-03T14:16:21.090Z,1009.3
2018-07-03T14:26:35.923Z,1009.1
2018-07-03T14:36:50.841Z,1009
2018-07-03T14:47:06.014Z,1009
2018-07-03T14:57:21.109Z,1009
2018-07-03T15:07:36.378Z,1008.9
2018-07-03T15:17:50.766Z,1008.9
2018-07-03T15:28:06.676Z,1008.8
2018-07-03T15:38:22.357Z,1008.7
2018-07-03T15:48:37.933Z,1008.6
2018-07-03T15:58:52.019Z,1008.6
2018-07-03T16:09:06.593Z,1008.5
2018-07-03T16:19:21.538Z,1008.5
2018-07-03T16:29:37.203Z,1008.4
2018-07-03T16:39:52.401Z,1008.3
2018-07-03T16:50:07.353Z,1008.3
2018-07-03T17:00:22.062Z,1008.1
2018-07-03T17:10:37.638Z,1008.2
2018-07-03T17:20:52.017Z,1008.2
2018-07-03T17:31:06.386Z,1008.2
2018-07-03T17:41:21.653Z,1008.2
2018-07-03T17:51:37.369Z,1008.1
2018-07-03T18:01:51.335Z,1008.1
2018-07-03T18:12:07.000Z,1008
2018-07-03T18:22:20.805Z,1007.9
2018-07-03T18:32:36.494Z,1007.9
2018-07-03T18:42:52.291Z,1007.9
2018-07-03T18:53:07.213Z,1007.9
2018-07-03T19:03:21.527Z,1007.9
2018-07-03T19:13:36.954Z,1008.1
2018-07-03T19:23:51.276Z,1008.1
2018-07-03T19:34:06.162Z,1008.3
2018-07-03T19:44:21.050Z,1008.3
2018-07-03T19:54:36.564Z,1008.5
2018-07-03T20:04:52.399Z,1008.7
2018-07-03T20:15:06.370Z,1008.8
2018-07-03T20:25:20.323Z,1008.7
2018-07-03T20:35:35.919Z,1008.7
2018-07-03T20:45:51.446Z,1008.8
2018-07-03T20:56:05.940Z,1008.7
2018-07-03T21:06:21.110Z,1008.8
2018-07-03T21:16:35.592Z,1008.9
2018-07-03T21:26:49.654Z,1008.9
2018-07-03T21:37:03.825Z,1008.9
2018-07-03T21:47:18.945Z,1009
2018-07-03T21:57:32.948Z,1009
2018-07-03T22:07:48.371Z,1009
2018-07-03T22:18:02.774Z,1008.9
2018-07-03T22:28:18.381Z,1009
2018-07-03T22:38:33.919Z,1009
2018-07-03T22:48:48.026Z,1008.9
2018-07-03T22:59:03.137Z,1008.9
2018-07-03T23:09:17.993Z,1008.9
2018-07-03T23:19:31.620Z,1008.9
2018-07-03T23:29:45.699Z,1009
2018-07-03T23:40:01.068Z,1008.9
2018-07-03T23:50:14.994Z,1008.9
